Time;durP1;ratioP1;P1;durP2;ratioP2;P2;SDS_P1;SDS_P2;PMS_P1;PMS_P2;Temp;Humidity;BMP_temperature;BMP_pressure;BME280_temperature;BME280_humidity;BME280_pressure;Samples;Min_cycle;Max_cycle;Signal;HPM_P1;HPM_P2
2022/11/09 00:01:03;;;;;;;;;;;;;;;13.48;56.00;99478.28;4991843;28;20296;-77
2022/11/09 00:03:28;;;;;;;;;;;;;;;13.48;55.94;99491.41;4975326;28;19926;-77
2022/11/09 00:05:57;;;;;;;;;;;;;;;13.47;55.98;99485.34;4975205;28;20377;-81
2022/11/09 00:08:22;;;;;;;;;;;;;;;13.45;55.98;99495.09;4991351;28;19918;-78
2022/11/09 00:10:47;;;;;;;;;;;;;;;13.43;55.95;99494.38;4975234;28;20473;-77
2022/11/09 00:13:12;;;;;;;;;;;;;;;13.41;55.89;99485.78;4991455;28;19925;-77
2022/11/09 00:15:38;;;;;;;;;;;;;;;13.40;56.02;99491.97;4976207;28;19948;-77
2022/11/09 00:18:03;;;;;;;;;;;;;;;13.38;56.13;99496.53;4991420;28;19980;-77
2022/11/09 00:20:28;;;;;;;;;;;;;;;13.35;55.88;99489.72;4991200;28;20301;-78
2022/11/09 00:22:54;;;;;;;;;;;;;;;13.33;56.23;99489.00;4991468;28;20364;-78
2022/11/09 00:25:19;;;;;;;;;;;;;;;13.32;56.28;99491.69;4974955;28;19922;-78
2022/11/09 00:27:44;;;;;;;;;;;;;;;13.30;56.36;99493.59;4991241;28;19929;-78
2022/11/09 00:30:10;;;;;;;;;;;;;;;13.29;56.44;99491.94;4974733;28;19980;-77
2022/11/09 00:32:35;;;;;;;;;;;;;;;13.27;56.11;99491.22;4991429;28;20532;-77
2022/11/09 00:35:01;;;;;;;;;;;;;;;13.24;56.11;99486.22;4991103;28;19919;-77
2022/11/09 00:37:28;;;;;;;;;;;;;;;13.24;56.34;99488.84;4975176;28;19926;-77
2022/11/09 00:39:53;;;;;;;;;;;;;;;13.23;56.07;99492.41;4987214;28;19928;-77
2022/11/09 00:42:18;;;;;;;;;;;;;;;13.20;56.28;99486.44;4978131;28;19918;-78
2022/11/09 00:44:44;;;;;;;;;;;;;;;13.20;56.37;99486.44;4977506;28;19925;-78
2022/11/09 00:47:09;;;;;;;;;;;;;;;13.18;56.37;99480.47;4995362;28;20302;-75
2022/11/09 00:49:34;;;;;;;;;;;;;;;13.16;56.13;99492.03;4995804;28;19922;-78
2022/11/09 00:51:59;;;;;;;;;;;;;;;13.14;56.20;99494.75;4994128;28;20361;-77
2022/11/09 00:54:25;;;;;;;;;;;;;;;13.13;56.19;99485.22;4977503;28;19977;-77
2022/11/09 00:56:50;;;;;;;;;;;;;;;13.12;56.24;99486.16;4993917;28;19918;-76
2022/11/09 00:59:15;;;;;;;;;;;;;;;13.10;56.28;99482.81;4977059;28;19918;-77
2022/11/09 01:01:41;;;;;;;;;;;;;;;13.09;55.82;99493.41;4995276;28;20415;-77
2022/11/09 01:04:06;;;;;;;;;;;;;;;13.06;56.04;99484.00;4993939;28;19972;-77
2022/11/09 01:06:31;;;;;;;;;;;;;;;13.05;56.10;99479.72;4993922;28;19918;-77
2022/11/09 01:08:57;;;;;;;;;;;;;;;13.02;55.95;99480.78;4977428;28;19922;-77
2022/11/09 01:11:22;;;;;;;;;;;;;;;13.02;55.97;99479.94;4994202;28;19917;-77
2022/11/09 01:13:47;;;;;;;;;;;;;;;13.00;56.14;99474.81;4993864;28;20396;-77
2022/11/09 01:16:14;;;;;;;;;;;;;;;12.99;55.77;99480.19;4993460;28;19918;-76
2022/11/09 01:18:39;;;;;;;;;;;;;;;12.96;55.96;99475.16;4977243;28;20320;-76
2022/11/09 01:21:05;;;;;;;;;;;;;;;12.93;55.90;99473.59;4992865;28;19922;-77
2022/11/09 01:23:31;;;;;;;;;;;;;;;12.92;55.84;99481.56;4993690;28;20376;-77
2022/11/09 01:25:57;;;;;;;;;;;;;;;12.88;55.78;99475.72;4977615;28;19930;-77
2022/11/09 01:28:22;;;;;;;;;;;;;;;12.87;55.78;99479.28;4993533;28;19918;-78
2022/11/09 01:30:48;;;;;;;;;;;;;;;12.84;55.71;99484.78;4976973;28;19918;-75
2022/11/09 01:33:13;;;;;;;;;;;;;;;12.82;55.74;99481.41;4977278;28;19921;-75
2022/11/09 01:35:38;;;;;;;;;;;;;;;12.83;56.07;99478.69;4994622;28;20289;-76
2022/11/09 01:38:04;;;;;;;;;;;;;;;12.83;55.68;99476.06;4993225;28;19933;-76
2022/11/09 01:40:30;;;;;;;;;;;;;;;12.84;55.99;99482.16;4992731;28;19922;-75
2022/11/09 01:42:55;;;;;;;;;;;;;;;12.87;55.97;99481.06;4994081;28;20376;-75
2022/11/09 01:45:22;;;;;;;;;;;;;;;12.89;56.12;99474.78;4976696;28;19917;-76
2022/11/09 01:47:49;;;;;;;;;;;;;;;12.91;56.14;99478.13;4992735;28;19968;-76
2022/11/09 01:50:14;;;;;;;;;;;;;;;12.93;55.95;99472.75;4976737;28;19918;-76
2022/11/09 01:52:41;;;;;;;;;;;;;;;12.95;56.29;99473.47;4992985;28;19940;-77
2022/11/09 01:55:06;;;;;;;;;;;;;;;12.96;56.25;99478.59;4976267;28;19917;-76
2022/11/09 01:57:35;;;;;;;;;;;;;;;12.99;56.25;99475.75;4994401;28;19925;-76
2022/11/09 02:00:03;;;;;;;;;;;;;;;13.01;56.14;99475.63;4976891;28;19965;-76
2022/11/09 02:02:28;;;;;;;;;;;;;;;13.05;56.14;99473.66;4992785;28;19928;-76
2022/11/09 02:04:54;;;;;;;;;;;;;;;13.08;56.25;99479.50;4993872;28;19918;-76
2022/11/09 02:07:20;;;;;;;;;;;;;;;13.10;56.30;99472.34;4976461;28;19960;-76
2022/11/09 02:09:45;;;;;;;;;;;;;;;13.13;56.52;99473.91;4976379;28;20325;-77
2022/11/09 02:12:10;;;;;;;;;;;;;;;13.15;56.56;99472.81;4993308;28;19917;-76
2022/11/09 02:14:35;;;;;;;;;;;;;;;13.19;56.34;99473.44;4976716;28;19984;-77
2022/11/09 02:17:01;;;;;;;;;;;;;;;13.22;56.29;99473.22;4976323;28;20317;-77
2022/11/09 02:19:26;;;;;;;;;;;;;;;13.26;56.66;99476.44;4992363;28;19925;-77
2022/11/09 02:21:51;;;;;;;;;;;;;;;13.27;56.42;99476.31;4992613;28;19917;-77
2022/11/09 02:24:17;;;;;;;;;;;;;;;13.30;56.31;99473.47;4976573;28;20298;-77
2022/11/09 02:26:49;;;;;;;;;;;;;;;13.34;56.25;99476.72;4992165;28;19918;-77
2022/11/09 02:29:18;;;;;;;;;;;;;;;13.36;56.50;99475.66;4992499;28;19976;-77
2022/11/09 02:31:44;;;;;;;;;;;;;;;13.39;56.39;99477.19;4992152;28;19918;-77
2022/11/09 02:34:16;;;;;;;;;;;;;;;13.42;56.40;99476.13;4992469;28;19961;-77
2022/11/09 02:36:42;;;;;;;;;;;;;;;13.43;56.49;99473.41;4976231;28;19953;-77
2022/11/09 02:39:07;;;;;;;;;;;;;;;13.45;56.63;99468.03;4992068;28;20266;-77
2022/11/09 02:41:33;;;;;;;;;;;;;;;13.46;56.57;99475.78;4992418;28;19925;-77
2022/11/09 02:43:58;;;;;;;;;;;;;;;13.47;56.52;99473.97;4991962;28;19920;-77
2022/11/09 02:46:24;;;;;;;;;;;;;;;13.48;56.68;99467.81;4992258;28;19917;-77
2022/11/09 02:48:49;;;;;;;;;;;;;;;13.50;56.99;99476.38;4976224;28;20399;-77
2022/11/09 02:51:14;;;;;;;;;;;;;;;13.51;56.82;99471.00;4975656;28;19929;-77
2022/11/09 02:53:40;;;;;;;;;;;;;;;13.51;56.77;99476.25;4975972;28;19921;-76
2022/11/09 02:56:05;;;;;;;;;;;;;;;13.54;56.66;99473.41;4992053;28;20020;-77
2022/11/09 02:58:30;;;;;;;;;;;;;;;13.55;56.73;99474.22;4992129;28;19921;-77
2022/11/09 03:00:56;;;;;;;;;;;;;;;13.57;56.81;99474.97;4992056;28;19925;-77
2022/11/09 03:03:21;;;;;;;;;;;;;;;13.58;56.87;99474.00;4991940;28;19925;-78
2022/11/09 03:05:46;;;;;;;;;;;;;;;13.59;56.77;99474.84;4992056;28;20392;-77
2022/11/09 03:08:12;;;;;;;;;;;;;;;13.60;57.09;99482.59;4992378;28;19964;-77
2022/11/09 03:10:37;;;;;;;;;;;;;;;13.61;56.67;99480.81;4975761;28;19924;-77
2022/11/09 03:13:02;;;;;;;;;;;;;;;13.61;57.10;99480.81;4992106;28;19918;-76
2022/11/09 03:15:27;;;;;;;;;;;;;;;13.62;56.91;99477.22;4975905;28;19918;-76
2022/11/09 03:17:53;;;;;;;;;;;;;;;13.62;56.96;99485.09;4992247;28;19925;-76
2022/11/09 03:20:18;;;;;;;;;;;;;;;13.64;56.98;99484.00;4992102;28;20364;-76
2022/11/09 03:22:43;;;;;;;;;;;;;;;13.66;57.02;99484.75;4993559;28;20427;-76
2022/11/09 03:25:09;;;;;;;;;;;;;;;13.66;57.01;99482.13;4979159;28;20385;-76
2022/11/09 03:27:34;;;;;;;;;;;;;;;13.69;57.09;99484.50;4995667;28;19917;-76
2022/11/09 03:29:59;;;;;;;;;;;;;;;13.69;57.13;99479.25;4995467;28;20381;-76
2022/11/09 03:32:25;;;;;;;;;;;;;;;13.70;56.89;99480.09;4979436;28;19956;-76
2022/11/09 03:34:50;;;;;;;;;;;;;;;13.71;57.21;99479.13;4979254;28;19922;-77
2022/11/09 03:37:15;;;;;;;;;;;;;;;13.71;57.08;99481.75;4995473;28;19925;-76
2022/11/09 03:39:41;;;;;;;;;;;;;;;13.71;56.99;99479.97;4996567;28;20001;-76
2022/11/09 03:42:06;;;;;;;;;;;;;;;13.72;57.10;99484.25;4995167;28;19956;-77
2022/11/09 03:44:31;;;;;;;;;;;;;;;13.72;57.08;99492.13;4995630;28;20029;-77
2022/11/09 03:46:57;;;;;;;;;;;;;;;13.72;57.05;99486.06;4995797;28;20369;-77
2022/11/09 03:49:25;;;;;;;;;;;;;;;13.71;57.03;99485.22;4995863;28;19917;-76
2022/11/09 03:51:50;;;;;;;;;;;;;;;13.70;56.88;99491.41;4995061;28;19917;-77
2022/11/09 03:54:15;;;;;;;;;;;;;;;13.70;57.03;99482.72;4994762;28;19928;-77
2022/11/09 03:56:41;;;;;;;;;;;;;;;13.68;57.19;99487.25;4978913;28;19918;-77
2022/11/09 03:59:06;;;;;;;;;;;;;;;13.65;56.94;99485.69;4978731;28;20372;-78
2022/11/09 04:01:31;;;;;;;;;;;;;;;13.64;57.20;99483.19;4978497;28;20017;-77
2022/11/09 04:03:57;;;;;;;;;;;;;;;13.63;57.13;99485.00;4978653;28;19926;-78
2022/11/09 04:06:22;;;;;;;;;;;;;;;13.63;57.04;99481.50;4994531;28;19922;-77
2022/11/09 04:08:47;;;;;;;;;;;;;;;13.61;57.14;99484.25;4994836;28;20389;-77
2022/11/09 04:11:12;;;;;;;;;;;;;;;13.60;57.18;99484.38;4994826;28;19918;-77
2022/11/09 04:13:38;;;;;;;;;;;;;;;13.58;57.15;99487.09;4996299;28;19918;-78
2022/11/09 04:16:03;;;;;;;;;;;;;;;13.56;57.32;99487.22;4994534;28;19981;-76
2022/11/09 04:18:28;;;;;;;;;;;;;;;13.54;56.99;99489.13;4994845;28;19960;-77
2022/11/09 04:20:56;;;;;;;;;;;;;;;13.52;57.21;99483.19;4978515;28;19972;-78
2022/11/09 04:23:21;;;;;;;;;;;;;;;13.51;57.10;99489.38;4995766;28;19918;-77
2022/11/09 04:25:46;;;;;;;;;;;;;;;13.49;57.39;99483.41;4977501;28;19925;-77
2022/11/09 04:28:12;;;;;;;;;;;;;;;13.48;57.56;99481.75;4995680;28;19918;-75
2022/11/09 04:30:37;;;;;;;;;;;;;;;13.47;57.49;99480.09;4994451;28;20324;-77
2022/11/09 04:33:03;;;;;;;;;;;;;;;13.48;57.27;99486.16;4977894;28;19925;-76
2022/11/09 04:35:28;;;;;;;;;;;;;;;13.48;57.28;99491.41;4993288;28;19917;-77
2022/11/09 04:37:54;;;;;;;;;;;;;;;13.46;57.44;99482.81;4994827;28;19918;-79
2022/11/09 04:40:20;;;;;;;;;;;;;;;13.61;62.57;99483.44;4993852;28;19921;-78
2022/11/09 04:42:45;;;;;;;;;;;;;;;13.85;65.26;99480.69;4996883;28;19918;-75
2022/11/09 04:45:10;;;;;;;;;;;;;;;13.86;62.05;99480.56;4994303;28;19925;-76
2022/11/09 04:47:36;;;;;;;;;;;;;;;13.83;61.32;99483.41;4994261;28;20352;-76
2022/11/09 04:50:01;;;;;;;;;;;;;;;13.79;60.76;99487.25;4977656;28;19949;-79
2022/11/09 04:52:26;;;;;;;;;;;;;;;13.73;59.84;99490.34;4994024;28;19927;-77
2022/11/09 04:54:51;;;;;;;;;;;;;;;13.68;59.64;99495.13;4993652;28;19947;-78
2022/11/09 04:57:17;;;;;;;;;;;;;;;13.65;59.46;99492.75;4993934;28;19917;-78
2022/11/09 04:59:42;;;;;;;;;;;;;;;13.62;59.26;99498.22;4993957;28;19918;-79
2022/11/09 05:02:07;;;;;;;;;;;;;;;13.61;59.09;99499.16;4977894;28;19922;-77
2022/11/09 05:04:33;;;;;;;;;;;;;;;13.60;58.77;99503.59;4976818;28;20364;-77
2022/11/09 05:06:58;;;;;;;;;;;;;;;13.61;58.35;99507.03;4977279;28;19917;-76
2022/11/09 05:09:23;;;;;;;;;;;;;;;13.63;58.26;99513.00;4993961;28;19918;-77
2022/11/09 05:11:50;;;;;;;;;;;;;;;13.63;58.32;99520.84;4993506;28;19918;-77
2022/11/09 05:14:15;;;;;;;;;;;;;;;13.66;58.08;99524.09;4993406;28;19922;-78
2022/11/09 05:16:40;;;;;;;;;;;;;;;13.67;57.81;99522.31;4995052;28;19918;-79
2022/11/09 05:19:06;;;;;;;;;;;;;;;13.71;57.57;99523.72;4993490;28;19996;-79
2022/11/09 05:21:31;;;;;;;;;;;;;;;13.78;57.14;99527.56;4994722;28;19917;-79
2022/11/09 05:23:59;;;;;;;;;;;;;;;13.85;57.07;99526.16;4993380;28;19921;-75
2022/11/09 05:26:29;;;;;;;;;;;;;;;13.94;56.86;99529.84;4993520;28;19922;-87
2022/11/09 05:28:54;;;;;;;;;;;;;;;14.04;56.56;99530.81;4977530;28;19918;-80
2022/11/09 05:31:20;;;;;;;;;;;;;;;14.21;61.07;99539.97;4996456;28;19941;-76
2022/11/09 05:33:47;;;;;;;;;;;;;;;14.73;63.61;99539.44;5005305;28;19921;-81
2022/11/09 05:36:12;;;;;;;;;;;;;;;15.24;62.38;99544.00;4993310;28;19918;-82
2022/11/09 05:38:38;;;;;;;;;;;;;;;15.65;61.00;99547.59;4993580;28;19918;-88
2022/11/09 05:41:03;;;;;;;;;;;;;;;16.09;59.26;99550.06;4975020;28;19929;-87
2022/11/09 05:43:28;;;;;;;;;;;;;;;16.48;57.77;99547.56;4990160;28;19918;-88
2022/11/09 05:45:53;;;;;;;;;;;;;;;16.88;57.00;99553.75;4989843;28;19923;-84
2022/11/09 05:48:19;;;;;;;;;;;;;;;17.26;55.69;99552.09;4975048;28;20009;-84
2022/11/09 05:50:44;;;;;;;;;;;;;;;17.63;54.41;99553.97;4974205;28;19922;-80
2022/11/09 05:53:10;;;;;;;;;;;;;;;17.98;53.32;99555.16;4973117;28;19925;-84
2022/11/09 05:55:35;;;;;;;;;;;;;;;18.30;52.10;99553.94;4974524;28;19929;-78
2022/11/09 05:58:00;;;;;;;;;;;;;;;18.57;50.84;99556.53;4989687;28;19925;-75
2022/11/09 06:00:26;;;;;;;;;;;;;;;18.85;50.05;99559.19;4989839;28;19925;-78
2022/11/09 06:02:51;;;;;;;;;;;;;;;19.06;47.31;99556.22;4974213;28;20429;-87
2022/11/09 06:05:17;;;;;;;;;;;;;;;19.28;45.76;99556.75;4973782;28;19917;-87
2022/11/09 06:07:42;;;;;;;;;;;;;;;19.58;44.45;99571.38;4990037;28;19926;-88
2022/11/09 06:10:08;;;;;;;;;;;;;;;19.94;42.98;99565.16;4973346;28;19919;-85
2022/11/09 06:12:33;;;;;;;;;;;;;;;20.28;41.63;99569.66;4973889;28;19918;-75
2022/11/09 06:14:58;;;;;;;;;;;;;;;20.72;40.63;99570.31;4990208;28;19918;-87
2022/11/09 06:17:24;;;;;;;;;;;;;;;21.29;38.93;99574.03;4989220;28;19918;-81
2022/11/09 06:19:49;;;;;;;;;;;;;;;21.84;37.53;99565.38;4990049;28;19918;-83
2022/11/09 06:22:14;;;;;;;;;;;;;;;22.45;36.28;99572.00;4989815;28;19929;-81
2022/11/09 06:24:40;;;;;;;;;;;;;;;23.06;34.88;99574.81;4973203;28;19922;-77
2022/11/09 06:27:05;;;;;;;;;;;;;;;23.72;33.13;99575.09;4989532;28;20357;-77
2022/11/09 06:29:30;;;;;;;;;;;;;;;24.32;32.12;99580.44;4972855;28;19984;-77
2022/11/09 06:31:55;;;;;;;;;;;;;;;24.81;31.15;99577.16;4988524;28;20071;-79
2022/11/09 06:34:21;;;;;;;;;;;;;;;25.19;30.50;99576.94;4971623;28;19922;-77
2022/11/09 06:36:46;;;;;;;;;;;;;;;25.45;29.90;99578.19;4972742;28;20380;-78
2022/11/09 06:39:11;;;;;;;;;;;;;;;25.60;29.42;99572.75;4973456;28;19980;-79
2022/11/09 06:41:37;;;;;;;;;;;;;;;25.66;29.59;99576.50;4988910;28;19922;-78
2022/11/09 06:44:04;;;;;;;;;;;;;;;25.57;29.49;99575.81;4972781;28;19922;-79
2022/11/09 06:46:29;;;;;;;;;;;;;;;25.43;29.78;99572.22;4974267;28;19918;-79
2022/11/09 06:48:54;;;;;;;;;;;;;;;25.32;29.80;99570.91;4989229;28;19977;-79
2022/11/09 06:51:20;;;;;;;;;;;;;;;25.25;30.15;99570.81;4989055;28;19925;-78
2022/11/09 06:53:45;;;;;;;;;;;;;;;25.25;29.71;99575.31;4974240;28;20409;-81
2022/11/09 06:56:10;;;;;;;;;;;;;;;25.30;29.70;99572.09;4988982;28;19924;-81
2022/11/09 06:58:36;;;;;;;;;;;;;;;25.34;29.84;99574.19;4992108;28;19972;-77
2022/11/09 07:01:11;;;;;;;;;;;;;;;25.45;29.72;99572.84;4977511;28;20033;-78
2022/11/09 07:03:36;;;;;;;;;;;;;;;25.54;29.70;99573.53;4993453;28;19976;-81
2022/11/09 07:06:05;;;;;;;;;;;;;;;25.61;29.52;99569.06;4993008;28;19949;-79
2022/11/09 07:08:31;;;;;;;;;;;;;;;25.67;28.99;99575.50;4977090;28;19940;-79
2022/11/09 07:11:01;;;;;;;;;;;;;;;25.76;28.94;99571.63;4977798;28;20389;-78
2022/11/09 07:13:26;;;;;;;;;;;;;;;25.85;29.05;99573.13;4960265;28;19918;-79
2022/11/09 07:15:52;;;;;;;;;;;;;;;25.98;28.93;99572.41;4992632;28;19976;-79
2022/11/09 07:18:18;;;;;;;;;;;;;;;26.19;28.58;99574.19;4992709;28;20392;-78
2022/11/09 07:20:43;;;;;;;;;;;;;;;26.40;27.84;99570.56;4992439;28;19918;-78
2022/11/09 07:23:08;;;;;;;;;;;;;;;26.65;27.62;99567.41;4960159;28;19918;-78
2022/11/09 07:25:34;;;;;;;;;;;;;;;26.82;27.42;99570.50;4992840;28;19918;-79
2022/11/09 07:28:03;;;;;;;;;;;;;;;26.98;27.18;99564.78;4976118;28;19957;-78
2022/11/09 07:30:29;;;;;;;;;;;;;;;27.17;26.90;99567.69;4976298;28;19920;-78
2022/11/09 07:32:54;;;;;;;;;;;;;;;27.27;26.77;99558.19;4960345;28;20033;-78
2022/11/09 07:35:19;;;;;;;;;;;;;;;27.31;26.77;99561.34;4959629;28;19918;-80
2022/11/09 07:37:44;;;;;;;;;;;;;;;27.39;26.62;99565.63;4992456;28;19925;-80
2022/11/09 07:40:10;;;;;;;;;;;;;;;27.51;26.22;99555.13;4959778;28;19973;-78
2022/11/09 07:42:35;;;;;;;;;;;;;;;27.59;26.10;99555.72;4977207;28;19922;-79
2022/11/09 07:45:01;;;;;;;;;;;;;;;27.84;25.86;99565.00;4975765;28;19961;-80
2022/11/09 07:47:26;;;;;;;;;;;;;;;27.86;25.83;99561.03;4977278;28;19927;-81
2022/11/09 07:49:51;;;;;;;;;;;;;;;28.01;25.56;99557.34;4992229;28;19968;-78
2022/11/09 07:52:16;;;;;;;;;;;;;;;28.05;25.76;99563.94;4975911;28;19918;-79
2022/11/09 07:54:42;;;;;;;;;;;;;;;28.25;25.22;99562.00;4975733;28;20061;-79
2022/11/09 07:57:07;;;;;;;;;;;;;;;28.36;25.08;99570.44;4975713;28;19977;-78
2022/11/09 07:59:32;;;;;;;;;;;;;;;28.48;24.79;99568.72;4992064;28;19918;-78
2022/11/09 08:01:58;;;;;;;;;;;;;;;28.55;24.51;99566.81;4991931;28;20039;-79
2022/11/09 08:04:23;;;;;;;;;;;;;;;28.67;24.71;99569.66;4975451;28;20440;-78
2022/11/09 08:06:52;;;;;;;;;;;;;;;28.77;24.30;99567.34;4959004;28;19925;-80
2022/11/09 08:09:17;;;;;;;;;;;;;;;28.86;24.21;99568.75;4990563;28;20365;-80
2022/11/09 08:11:42;;;;;;;;;;;;;;;28.99;24.24;99564.34;4976055;28;20361;-78
2022/11/09 08:14:08;;;;;;;;;;;;;;;29.03;23.95;99561.00;4991601;28;19922;-77
2022/11/09 08:16:33;;;;;;;;;;;;;;;29.15;24.06;99561.09;4991452;28;20353;-78
2022/11/09 08:18:59;;;;;;;;;;;;;;;29.26;24.05;99567.66;4991580;28;20002;-79
2022/11/09 08:21:24;;;;;;;;;;;;;;;29.34;23.60;99563.88;4975793;28;20017;-78
2022/11/09 08:23:49;;;;;;;;;;;;;;;29.32;23.24;99569.47;4974704;28;19918;-80
2022/11/09 08:26:14;;;;;;;;;;;;;;;29.38;23.53;99565.06;4991700;28;20274;-77
2022/11/09 08:28:40;;;;;;;;;;;;;;;29.52;23.35;99568.47;4976462;28;19926;-78
2022/11/09 08:31:06;;;;;;;;;;;;;;;29.61;23.11;99560.97;4991498;28;19918;-77
2022/11/09 08:33:32;;;;;;;;;;;;;;;29.75;23.13;99568.66;4991236;28;19918;-79
2022/11/09 08:35:58;;;;;;;;;;;;;;;29.84;23.11;99573.78;4974871;28;20386;-79
2022/11/09 08:38:23;;;;;;;;;;;;;;;29.96;22.87;99577.38;4975054;28;19925;-78
2022/11/09 08:40:48;;;;;;;;;;;;;;;30.12;22.70;99578.66;4974722;28;19922;-79
2022/11/09 08:43:14;;;;;;;;;;;;;;;30.26;21.92;99572.06;4991440;28;20370;-81
2022/11/09 08:45:39;;;;;;;;;;;;;;;30.39;22.09;99576.50;4974774;28;19942;-78
2022/11/09 08:48:05;;;;;;;;;;;;;;;30.47;22.27;99576.19;4991651;28;19926;-78
2022/11/09 08:50:32;;;;;;;;;;;;;;;30.58;22.00;99577.28;4990891;28;19941;-81
2022/11/09 08:52:57;;;;;;;;;;;;;;;30.85;21.32;99574.22;4976570;28;20069;-79
2022/11/09 08:55:23;;;;;;;;;;;;;;;31.23;20.80;99580.31;4958588;28;20371;-79
2022/11/09 08:57:48;;;;;;;;;;;;;;;31.85;20.07;99569.94;4991024;28;19918;-78
2022/11/09 09:00:14;;;;;;;;;;;;;;;32.55;19.32;99570.00;4990667;28;19922;-80
2022/11/09 09:02:39;;;;;;;;;;;;;;;33.41;18.49;99579.91;4974349;28;20317;-78
2022/11/09 09:05:05;;;;;;;;;;;;;;;34.30;17.50;99578.19;4974465;28;19922;-78
2022/11/09 09:07:30;;;;;;;;;;;;;;;35.08;16.69;99575.22;4990766;28;19918;-79
2022/11/09 09:09:55;;;;;;;;;;;;;;;35.04;16.70;99584.94;4959193;28;20350;-79
2022/11/09 09:12:21;;;;;;;;;;;;;;;34.59;17.23;99578.78;4990418;28;19925;-80
2022/11/09 09:14:46;;;;;;;;;;;;;;;33.81;18.31;99566.19;4974423;28;19918;-79
2022/11/09 09:17:11;;;;;;;;;;;;;;;33.27;18.47;99560.47;4974224;28;20411;-78
2022/11/09 09:19:37;;;;;;;;;;;;;;;32.63;19.77;99558.81;4974682;28;19918;-78
2022/11/09 09:22:02;;;;;;;;;;;;;;;32.40;19.33;99557.84;4990539;28;20385;-78
2022/11/09 09:24:27;;;;;;;;;;;;;;;32.32;19.70;99557.41;4957653;28;19918;-79
2022/11/09 09:26:53;;;;;;;;;;;;;;;32.70;19.36;99556.78;4974230;28;20321;-79
2022/11/09 09:29:18;;;;;;;;;;;;;;;32.67;19.58;99556.47;4990225;28;19918;-80
2022/11/09 09:31:43;;;;;;;;;;;;;;;32.52;19.70;99554.28;4974312;28;19925;-79
2022/11/09 09:34:10;;;;;;;;;;;;;;;32.55;19.36;99554.59;4990124;28;19925;-80
2022/11/09 09:36:36;;;;;;;;;;;;;;;32.43;19.70;99549.28;4973698;28;19922;-81
2022/11/09 09:39:01;;;;;;;;;;;;;;;32.47;19.64;99546.91;4973454;28;20009;-78
2022/11/09 09:41:34;;;;;;;;;;;;;;;32.36;19.70;99550.47;4975710;28;19918;-80
2022/11/09 09:44:07;;;;;;;;;;;;;;;32.36;19.47;99545.06;4973059;28;19985;-80
2022/11/09 09:46:41;;;;;;;;;;;;;;;32.33;19.73;99540.94;4973627;28;19957;-80
2022/11/09 09:49:12;;;;;;;;;;;;;;;32.27;19.63;99531.09;4989830;28;20009;-78
2022/11/09 09:51:41;;;;;;;;;;;;;;;32.14;19.76;99526.00;4973520;28;19919;-81
2022/11/09 09:54:18;;;;;;;;;;;;;;;32.11;19.97;99532.69;4973841;28;19914;-78
2022/11/09 09:56:44;;;;;;;;;;;;;;;32.02;20.00;99520.59;4973404;28;20283;-79
2022/11/09 09:59:12;;;;;;;;;;;;;;;31.90;20.09;99524.13;4990049;28;19929;-81
2022/11/09 10:01:41;;;;;;;;;;;;;;;31.78;20.19;99519.81;4989269;28;19922;-79
2022/11/09 10:04:17;;;;;;;;;;;;;;;31.61;20.35;99520.53;4972867;28;19922;-78
2022/11/09 10:06:47;;;;;;;;;;;;;;;31.54;20.72;99519.84;4957287;28;19976;-79
2022/11/09 10:09:30;;;;;;;;;;;;;;;31.46;21.04;99522.88;4989341;28;19922;-80
2022/11/09 10:12:03;;;;;;;;;;;;;;;31.30;20.69;99519.81;4989874;28;19922;-79
2022/11/09 10:14:31;;;;;;;;;;;;;;;31.21;20.80;99521.22;4992211;28;19928;-80
2022/11/09 10:16:57;;;;;;;;;;;;;;;30.98;21.20;99516.63;4993731;28;20293;-80
2022/11/09 10:19:25;;;;;;;;;;;;;;;30.84;20.96;99514.09;4993971;28;20016;-79
2022/11/09 10:21:50;;;;;;;;;;;;;;;30.65;21.02;99513.34;4992336;28;19918;-79
2022/11/09 10:24:37;;;;;;;;;;;;;;;30.48;21.12;99507.78;4992758;28;19925;-79
2022/11/09 10:27:05;;;;;;;;;;;;;;;30.39;21.48;99509.16;4993941;28;19921;-80
2022/11/09 10:29:34;;;;;;;;;;;;;;;30.21;21.73;99510.00;4976361;28;19961;-79
2022/11/09 10:32:13;;;;;;;;;;;;;;;30.09;22.07;99507.25;4975067;28;20048;-79
2022/11/09 10:35:08;;;;;;;;;;;;;;;29.91;21.90;99502.69;4992934;28;19918;-82
2022/11/09 10:37:33;;;;;;;;;;;;;;;29.77;22.02;99499.31;4980352;28;19917;-79
2022/11/09 10:40:02;;;;;;;;;;;;;;;29.64;22.55;99494.06;4992223;28;20295;-79
2022/11/09 10:42:27;;;;;;;;;;;;;;;29.45;22.70;99497.81;4976120;28;19965;-78
2022/11/09 10:44:53;;;;;;;;;;;;;;;29.31;22.75;99489.03;4993419;28;19918;-78
2022/11/09 10:47:18;;;;;;;;;;;;;;;29.11;23.12;99489.19;4976033;28;19976;-80
2022/11/09 10:49:43;;;;;;;;;;;;;;;28.94;23.27;99484.38;4993633;28;19918;-79
2022/11/09 10:52:29;;;;;;;;;;;;;;;28.79;22.98;99483.84;4976037;28;19921;-79
2022/11/09 10:54:56;;;;;;;;;;;;;;;28.53;23.55;99480.28;4975462;28;19918;-80
2022/11/09 10:57:22;;;;;;;;;;;;;;;28.44;23.84;99468.97;4991877;28;19922;-79
2022/11/09 10:59:51;;;;;;;;;;;;;;;28.33;24.10;99473.16;4975869;28;19918;-80
2022/11/09 11:02:37;;;;;;;;;;;;;;;28.18;24.33;99475.31;4992201;28;19922;-78
2022/11/09 11:05:05;;;;;;;;;;;;;;;28.05;24.59;99472.69;4975475;28;19918;-79
2022/11/09 11:07:30;;;;;;;;;;;;;;;27.91;24.75;99467.34;4993486;28;19996;-79
2022/11/09 11:09:56;;;;;;;;;;;;;;;27.76;24.94;99464.91;4993210;28;20015;-79
2022/11/09 11:12:21;;;;;;;;;;;;;;;27.61;25.08;99459.81;4992128;28;20073;-80
2022/11/09 11:14:47;;;;;;;;;;;;;;;27.51;25.30;99458.59;4992423;28;20353;-80
2022/11/09 11:17:39;;;;;;;;;;;;;;;27.32;25.50;99452.25;4992186;28;19925;-80
2022/11/09 11:20:24;;;;;;;;;;;;;;;27.15;25.87;99452.66;4990385;28;19925;-79
2022/11/09 11:22:49;;;;;;;;;;;;;;;26.99;26.10;99445.03;4975740;28;19917;-79
2022/11/09 11:25:18;;;;;;;;;;;;;;;26.88;26.31;99444.66;4975507;28;19929;-78
2022/11/09 11:27:46;;;;;;;;;;;;;;;26.76;26.19;99440.94;4975002;28;19918;-78
2022/11/09 11:30:13;;;;;;;;;;;;;;;26.59;26.43;99439.66;4975533;28;19917;-78
2022/11/09 11:32:38;;;;;;;;;;;;;;;26.42;26.79;99440.03;4992037;28;19925;-79
2022/11/09 11:35:17;;;;;;;;;;;;;;;26.32;27.00;99429.72;4991819;28;19918;-78
2022/11/09 11:38:01;;;;;;;;;;;;;;;26.22;27.44;99433.78;4975572;28;19917;-80
2022/11/09 11:40:28;;;;;;;;;;;;;;;26.08;27.37;99424.94;4991732;28;19928;-78
2022/11/09 11:42:54;;;;;;;;;;;;;;;25.95;27.41;99426.50;4992208;28;19917;-81
2022/11/09 11:45:33;;;;;;;;;;;;;;;25.83;28.03;99428.09;4994619;28;20012;-79
2022/11/09 11:48:01;;;;;;;;;;;;;;;25.71;27.73;99422.47;4995706;28;19980;-78
2022/11/09 11:50:43;;;;;;;;;;;;;;;25.56;28.04;99430.63;4996444;28;19918;-81
2022/11/09 11:53:27;;;;;;;;;;;;;;;25.37;28.25;99434.03;4995329;28;19922;-79
2022/11/09 11:56:05;;;;;;;;;;;;;;;25.20;28.39;99423.59;4978979;28;20373;-78
2022/11/09 11:58:39;;;;;;;;;;;;;;;25.04;28.63;99422.06;4995370;28;19918;-80
2022/11/09 12:01:17;;;;;;;;;;;;;;;24.90;28.69;99423.81;4978899;28;20061;-78
2022/11/09 12:03:45;;;;;;;;;;;;;;;24.72;28.89;99416.28;4995564;28;19972;-79
2022/11/09 12:06:14;;;;;;;;;;;;;;;24.61;29.14;99419.47;4996305;28;19918;-80
2022/11/09 12:08:51;;;;;;;;;;;;;;;24.48;29.39;99408.63;4994925;28;20433;-80
2022/11/09 12:11:20;;;;;;;;;;;;;;;24.33;29.81;99412.19;4993933;28;19922;-80
2022/11/09 12:13:45;;;;;;;;;;;;;;;24.24;30.10;99401.81;4978553;28;20381;-79
2022/11/09 12:16:29;;;;;;;;;;;;;;;24.15;30.10;99406.47;4994806;28;19924;-78
2022/11/09 12:18:57;;;;;;;;;;;;;;;24.02;30.46;99401.78;4995812;28;20393;-80
2022/11/09 12:21:41;;;;;;;;;;;;;;;23.92;30.70;99404.75;4977577;28;19917;-79
2022/11/09 12:24:25;;;;;;;;;;;;;;;23.80;30.94;99398.25;4978305;28;20292;-80
2022/11/09 12:26:59;;;;;;;;;;;;;;;23.69;30.78;99409.38;4994693;28;19917;-78
2022/11/09 12:29:27;;;;;;;;;;;;;;;23.58;31.11;99402.69;4994558;28;19957;-79
2022/11/09 12:31:58;;;;;;;;;;;;;;;23.47;31.28;99401.31;4978288;28;19980;-79
2022/11/09 12:34:28;;;;;;;;;;;;;;;23.38;31.25;99397.09;4995977;28;19922;-80
2022/11/09 12:36:55;;;;;;;;;;;;;;;23.28;31.31;99405.34;4978293;28;20104;-77
2022/11/09 12:39:20;;;;;;;;;;;;;;;23.17;31.76;99397.81;4994157;28;19921;-79
2022/11/09 12:41:45;;;;;;;;;;;;;;;23.15;31.73;99397.16;4995965;28;20278;-79
2022/11/09 12:44:13;;;;;;;;;;;;;;;23.04;31.96;99395.75;4994877;28;19914;-77
2022/11/09 12:46:39;;;;;;;;;;;;;;;22.94;32.15;99390.69;4994253;28;20398;-79